sensor_id;sensor_type;location;lat;lon;timestamp;temperature;humidity
17170;DHT22;8700;48.222;16.342;2023-10-31T00:03:05;18.10;99.90
17170;DHT22;8700;48.222;16.342;2023-10-31T00:06:27;17.90;99.90
17170;DHT22;8700;48.222;16.342;2023-10-31T00:09:47;17.70;99.90
17170;DHT22;8700;48.222;16.342;2023-10-31T00:13:09;17.50;99.90
17170;DHT22;8700;48.222;16.342;2023-10-31T00:16:30;17.50;99.90
17170;DHT22;8700;48.222;16.342;2023-10-31T00:19:52;17.40;99.90
17170;DHT22;8700;48.222;16.342;2023-10-31T00:23:14;17.40;99.90
17170;DHT22;8700;48.222;16.342;2023-10-31T00:26:36;17.40;99.90
17170;DHT22;8700;48.222;16.342;2023-10-31T00:29:57;17.40;99.90
17170;DHT22;8700;48.222;16.342;2023-10-31T00:33:18;17.40;99.90
17170;DHT22;8700;48.222;16.342;2023-10-31T00:36:40;17.30;99.90
17170;DHT22;8700;48.222;16.342;2023-10-31T00:40:02;17.30;99.90
17170;DHT22;8700;48.222;16.342;2023-10-31T00:43:23;17.30;99.90
17170;DHT22;8700;48.222;16.342;2023-10-31T00:46:44;17.20;99.90
17170;DHT22;8700;48.222;16.342;2023-10-31T00:50:06;17.10;99.90
17170;DHT22;8700;48.222;16.342;2023-10-31T00:53:29;17.10;99.90
17170;DHT22;8700;48.222;16.342;2023-10-31T00:56:50;17.00;99.90
17170;DHT22;8700;48.222;16.342;2023-10-31T01:00:12;17.00;99.90
17170;DHT22;8700;48.222;16.342;2023-10-31T01:03:33;17.10;99.90
17170;DHT22;8700;48.222;16.342;2023-10-31T01:06:54;17.00;99.90
17170;DHT22;8700;48.222;16.342;2023-10-31T01:10:16;17.00;99.90
17170;DHT22;8700;48.222;16.342;2023-10-31T01:13:38;17.10;99.90
17170;DHT22;8700;48.222;16.342;2023-10-31T01:16:59;17.10;99.90
17170;DHT22;8700;48.222;16.342;2023-10-31T01:20:20;17.10;99.90
17170;DHT22;8700;48.222;16.342;2023-10-31T01:23:41;17.10;99.90
17170;DHT22;8700;48.222;16.342;2023-10-31T01:27:04;17.10;99.90
17170;DHT22;8700;48.222;16.342;2023-10-31T01:30:25;17.20;99.90
17170;DHT22;8700;48.222;16.342;2023-10-31T01:33:46;17.10;99.90
17170;DHT22;8700;48.222;16.342;2023-10-31T01:37:07;17.10;99.90
17170;DHT22;8700;48.222;16.342;2023-10-31T01:40:28;17.00;99.90
17170;DHT22;8700;48.222;16.342;2023-10-31T01:43:51;16.90;99.90
17170;DHT22;8700;48.222;16.342;2023-10-31T01:47:12;17.00;99.90
17170;DHT22;8700;48.222;16.342;2023-10-31T01:50:33;17.00;99.90
17170;DHT22;8700;48.222;16.342;2023-10-31T01:53:55;17.00;99.90
17170;DHT22;8700;48.222;16.342;2023-10-31T01:57:18;17.10;99.90
17170;DHT22;8700;48.222;16.342;2023-10-31T02:00:41;16.90;99.90
17170;DHT22;8700;48.222;16.342;2023-10-31T02:04:03;17.00;99.90
17170;DHT22;8700;48.222;16.342;2023-10-31T02:07:25;17.00;99.90
17170;DHT22;8700;48.222;16.342;2023-10-31T02:10:46;17.00;99.90
17170;DHT22;8700;48.222;16.342;2023-10-31T02:14:07;17.00;99.90
17170;DHT22;8700;48.222;16.342;2023-10-31T02:17:30;17.00;99.90
17170;DHT22;8700;48.222;16.342;2023-10-31T02:20:51;17.00;99.90
17170;DHT22;8700;48.222;16.342;2023-10-31T02:24:13;16.90;99.90
17170;DHT22;8700;48.222;16.342;2023-10-31T02:27:34;16.90;99.90
17170;DHT22;8700;48.222;16.342;2023-10-31T02:30:55;16.90;99.90
17170;DHT22;8700;48.222;16.342;2023-10-31T02:34:17;16.90;99.90
17170;DHT22;8700;48.222;16.342;2023-10-31T02:37:38;16.90;99.90
17170;DHT22;8700;48.222;16.342;2023-10-31T02:41:00;16.90;99.90
17170;DHT22;8700;48.222;16.342;2023-10-31T02:44:21;17.00;99.90
17170;DHT22;8700;48.222;16.342;2023-10-31T02:47:43;17.00;99.90
17170;DHT22;8700;48.222;16.342;2023-10-31T02:51:04;17.00;99.90
17170;DHT22;8700;48.222;16.342;2023-10-31T02:54:25;17.00;99.90
17170;DHT22;8700;48.222;16.342;2023-10-31T02:57:47;17.10;99.90
17170;DHT22;8700;48.222;16.342;2023-10-31T03:01:09;17.10;99.90
17170;DHT22;8700;48.222;16.342;2023-10-31T03:04:29;16.90;99.90
17170;DHT22;8700;48.222;16.342;2023-10-31T03:07:51;17.00;99.90
17170;DHT22;8700;48.222;16.342;2023-10-31T03:11:21;17.00;99.90
17170;DHT22;8700;48.222;16.342;2023-10-31T03:14:43;16.80;99.90
17170;DHT22;8700;48.222;16.342;2023-10-31T03:18:04;17.00;99.90
17170;DHT22;8700;48.222;16.342;2023-10-31T03:21:25;17.20;99.90
17170;DHT22;8700;48.222;16.342;2023-10-31T03:24:46;17.10;99.90
17170;DHT22;8700;48.222;16.342;2023-10-31T03:28:17;17.20;99.90
17170;DHT22;8700;48.222;16.342;2023-10-31T03:31:40;17.00;99.90
17170;DHT22;8700;48.222;16.342;2023-10-31T03:35:01;16.90;99.90
17170;DHT22;8700;48.222;16.342;2023-10-31T03:38:22;16.50;99.90
17170;DHT22;8700;48.222;16.342;2023-10-31T03:41:44;16.40;99.90
17170;DHT22;8700;48.222;16.342;2023-10-31T03:45:07;16.20;99.90
17170;DHT22;8700;48.222;16.342;2023-10-31T03:48:30;16.00;99.90
17170;DHT22;8700;48.222;16.342;2023-10-31T03:51:51;16.00;99.90
17170;DHT22;8700;48.222;16.342;2023-10-31T03:55:12;15.90;99.90
17170;DHT22;8700;48.222;16.342;2023-10-31T03:58:33;15.80;99.90
17170;DHT22;8700;48.222;16.342;2023-10-31T04:01:54;15.90;99.90
17170;DHT22;8700;48.222;16.342;2023-10-31T04:05:17;15.70;99.90
17170;DHT22;8700;48.222;16.342;2023-10-31T04:08:38;15.70;99.90
17170;DHT22;8700;48.222;16.342;2023-10-31T04:11:59;15.80;99.90
17170;DHT22;8700;48.222;16.342;2023-10-31T04:15:20;15.70;99.90
17170;DHT22;8700;48.222;16.342;2023-10-31T04:18:41;15.70;99.90
17170;DHT22;8700;48.222;16.342;2023-10-31T04:22:04;15.70;99.90
17170;DHT22;8700;48.222;16.342;2023-10-31T04:25:25;15.60;99.90
17170;DHT22;8700;48.222;16.342;2023-10-31T04:28:48;15.60;99.90
17170;DHT22;8700;48.222;16.342;2023-10-31T04:32:09;15.60;99.90
17170;DHT22;8700;48.222;16.342;2023-10-31T04:35:31;15.50;99.90
17170;DHT22;8700;48.222;16.342;2023-10-31T04:38:53;15.70;99.90
17170;DHT22;8700;48.222;16.342;2023-10-31T04:42:14;15.70;99.90
17170;DHT22;8700;48.222;16.342;2023-10-31T04:45:36;15.70;99.90
17170;DHT22;8700;48.222;16.342;2023-10-31T04:48:56;15.50;99.90
17170;DHT22;8700;48.222;16.342;2023-10-31T04:52:20;15.50;99.90
17170;DHT22;8700;48.222;16.342;2023-10-31T04:55:43;15.60;99.90
17170;DHT22;8700;48.222;16.342;2023-10-31T04:59:05;15.80;99.90
17170;DHT22;8700;48.222;16.342;2023-10-31T05:02:26;15.80;99.90
17170;DHT22;8700;48.222;16.342;2023-10-31T05:05:48;15.80;99.90
17170;DHT22;8700;48.222;16.342;2023-10-31T05:09:09;15.80;99.90
17170;DHT22;8700;48.222;16.342;2023-10-31T05:12:32;15.70;99.90
17170;DHT22;8700;48.222;16.342;2023-10-31T05:15:53;15.50;99.90
17170;DHT22;8700;48.222;16.342;2023-10-31T05:19:15;15.50;99.90
17170;DHT22;8700;48.222;16.342;2023-10-31T05:22:36;15.50;99.90
17170;DHT22;8700;48.222;16.342;2023-10-31T05:25:58;15.50;99.90
17170;DHT22;8700;48.222;16.342;2023-10-31T05:29:20;15.50;99.90
17170;DHT22;8700;48.222;16.342;2023-10-31T05:32:41;15.30;99.90
17170;DHT22;8700;48.222;16.342;2023-10-31T05:36:03;15.30;99.90
17170;DHT22;8700;48.222;16.342;2023-10-31T05:39:24;15.20;99.90
17170;DHT22;8700;48.222;16.342;2023-10-31T05:42:45;15.10;99.90
17170;DHT22;8700;48.222;16.342;2023-10-31T05:46:07;15.10;99.90
17170;DHT22;8700;48.222;16.342;2023-10-31T05:49:30;15.10;99.90
17170;DHT22;8700;48.222;16.342;2023-10-31T05:52:51;15.10;99.90
17170;DHT22;8700;48.222;16.342;2023-10-31T05:56:12;15.00;99.90
17170;DHT22;8700;48.222;16.342;2023-10-31T05:59:33;15.20;99.90
17170;DHT22;8700;48.222;16.342;2023-10-31T06:02:56;15.10;99.90
17170;DHT22;8700;48.222;16.342;2023-10-31T06:06:17;15.20;99.90
17170;DHT22;8700;48.222;16.342;2023-10-31T06:09:38;15.20;99.90
17170;DHT22;8700;48.222;16.342;2023-10-31T06:12:59;15.10;99.90
17170;DHT22;8700;48.222;16.342;2023-10-31T06:16:21;15.00;99.90
17170;DHT22;8700;48.222;16.342;2023-10-31T06:19:43;15.00;99.90
17170;DHT22;8700;48.222;16.342;2023-10-31T06:23:05;15.00;99.90
17170;DHT22;8700;48.222;16.342;2023-10-31T06:26:26;15.00;99.90
17170;DHT22;8700;48.222;16.342;2023-10-31T06:29:47;15.20;99.90
17170;DHT22;8700;48.222;16.342;2023-10-31T06:33:08;15.20;99.90
17170;DHT22;8700;48.222;16.342;2023-10-31T06:36:31;15.20;99.90
17170;DHT22;8700;48.222;16.342;2023-10-31T06:39:52;15.00;99.90
17170;DHT22;8700;48.222;16.342;2023-10-31T06:43:14;14.90;99.90
17170;DHT22;8700;48.222;16.342;2023-10-31T06:46:35;14.90;99.90
17170;DHT22;8700;48.222;16.342;2023-10-31T06:49:56;15.10;99.90
17170;DHT22;8700;48.222;16.342;2023-10-31T06:53:19;14.80;99.90
17170;DHT22;8700;48.222;16.342;2023-10-31T06:56:40;14.60;99.90
17170;DHT22;8700;48.222;16.342;2023-10-31T07:00:01;14.50;99.90
17170;DHT22;8700;48.222;16.342;2023-10-31T07:03:23;14.50;99.90
17170;DHT22;8700;48.222;16.342;2023-10-31T07:06:44;14.50;99.90
17170;DHT22;8700;48.222;16.342;2023-10-31T07:10:07;14.80;99.90
17170;DHT22;8700;48.222;16.342;2023-10-31T07:13:30;14.90;99.90
17170;DHT22;8700;48.222;16.342;2023-10-31T07:16:51;14.90;99.90
17170;DHT22;8700;48.222;16.342;2023-10-31T07:20:12;14.70;99.90
17170;DHT22;8700;48.222;16.342;2023-10-31T07:23:33;15.10;99.90
17170;DHT22;8700;48.222;16.342;2023-10-31T07:26:55;15.00;99.90
17170;DHT22;8700;48.222;16.342;2023-10-31T07:30:16;14.80;99.90
17170;DHT22;8700;48.222;16.342;2023-10-31T07:33:38;14.80;99.90
17170;DHT22;8700;48.222;16.342;2023-10-31T07:36:59;14.70;99.90
17170;DHT22;8700;48.222;16.342;2023-10-31T07:40:20;14.60;99.90
17170;DHT22;8700;48.222;16.342;2023-10-31T07:43:42;14.60;99.90
17170;DHT22;8700;48.222;16.342;2023-10-31T07:47:04;14.60;99.90
17170;DHT22;8700;48.222;16.342;2023-10-31T07:50:25;14.50;99.90
17170;DHT22;8700;48.222;16.342;2023-10-31T07:53:46;14.60;99.90
17170;DHT22;8700;48.222;16.342;2023-10-31T07:57:07;14.60;99.90
17170;DHT22;8700;48.222;16.342;2023-10-31T08:00:30;14.60;99.90
17170;DHT22;8700;48.222;16.342;2023-10-31T08:03:52;14.50;99.90
17170;DHT22;8700;48.222;16.342;2023-10-31T08:07:13;14.50;99.90
17170;DHT22;8700;48.222;16.342;2023-10-31T08:10:35;14.60;99.90
17170;DHT22;8700;48.222;16.342;2023-10-31T08:13:56;14.70;99.90
17170;DHT22;8700;48.222;16.342;2023-10-31T08:17:18;14.80;99.90
17170;DHT22;8700;48.222;16.342;2023-10-31T08:20:39;15.20;99.90
17170;DHT22;8700;48.222;16.342;2023-10-31T08:24:01;15.40;99.90
17170;DHT22;8700;48.222;16.342;2023-10-31T08:27:22;15.40;99.90
17170;DHT22;8700;48.222;16.342;2023-10-31T08:30:43;15.40;99.90
17170;DHT22;8700;48.222;16.342;2023-10-31T08:34:06;15.50;99.90
17170;DHT22;8700;48.222;16.342;2023-10-31T08:37:27;15.50;99.90
17170;DHT22;8700;48.222;16.342;2023-10-31T08:40:48;15.50;99.90
17170;DHT22;8700;48.222;16.342;2023-10-31T08:44:09;15.60;99.90
17170;DHT22;8700;48.222;16.342;2023-10-31T08:47:30;15.70;99.90
17170;DHT22;8700;48.222;16.342;2023-10-31T08:50:53;15.50;99.90
17170;DHT22;8700;48.222;16.342;2023-10-31T08:54:14;15.50;99.90
17170;DHT22;8700;48.222;16.342;2023-10-31T08:57:35;15.20;99.90
17170;DHT22;8700;48.222;16.342;2023-10-31T09:00:56;15.10;99.90
17170;DHT22;8700;48.222;16.342;2023-10-31T09:04:17;15.40;99.90
17170;DHT22;8700;48.222;16.342;2023-10-31T09:07:40;15.60;99.90
17170;DHT22;8700;48.222;16.342;2023-10-31T09:11:01;15.60;99.90
17170;DHT22;8700;48.222;16.342;2023-10-31T09:14:23;15.50;99.90
17170;DHT22;8700;48.222;16.342;2023-10-31T09:17:44;15.10;99.90
17170;DHT22;8700;48.222;16.342;2023-10-31T09:21:05;15.00;99.90
17170;DHT22;8700;48.222;16.342;2023-10-31T09:24:28;15.20;99.90
17170;DHT22;8700;48.222;16.342;2023-10-31T09:27:49;15.10;99.90
17170;DHT22;8700;48.222;16.342;2023-10-31T09:31:10;15.30;99.90
17170;DHT22;8700;48.222;16.342;2023-10-31T09:34:31;15.30;99.90
17170;DHT22;8700;48.222;16.342;2023-10-31T09:37:53;15.10;99.90
17170;DHT22;8700;48.222;16.342;2023-10-31T09:41:15;14.90;99.90
17170;DHT22;8700;48.222;16.342;2023-10-31T09:44:36;14.80;99.90
17170;DHT22;8700;48.222;16.342;2023-10-31T09:47:59;15.00;99.90
17170;DHT22;8700;48.222;16.342;2023-10-31T09:51:21;15.10;99.90
17170;DHT22;8700;48.222;16.342;2023-10-31T09:54:42;15.00;99.90
17170;DHT22;8700;48.222;16.342;2023-10-31T09:58:05;14.70;99.90
17170;DHT22;8700;48.222;16.342;2023-10-31T10:01:27;14.30;99.90
17170;DHT22;8700;48.222;16.342;2023-10-31T10:04:48;14.00;99.90
17170;DHT22;8700;48.222;16.342;2023-10-31T10:08:10;14.00;99.90
17170;DHT22;8700;48.222;16.342;2023-10-31T10:11:32;14.10;99.90
17170;DHT22;8700;48.222;16.342;2023-10-31T10:14:57;14.00;99.90
17170;DHT22;8700;48.222;16.342;2023-10-31T10:18:25;13.80;99.90
17170;DHT22;8700;48.222;16.342;2023-10-31T10:21:47;13.80;99.90
17170;DHT22;8700;48.222;16.342;2023-10-31T10:25:09;13.70;99.90
17170;DHT22;8700;48.222;16.342;2023-10-31T10:28:31;13.40;99.90
17170;DHT22;8700;48.222;16.342;2023-10-31T10:31:54;13.10;99.90
17170;DHT22;8700;48.222;16.342;2023-10-31T10:35:15;12.90;99.90
17170;DHT22;8700;48.222;16.342;2023-10-31T10:38:38;12.80;99.90
17170;DHT22;8700;48.222;16.342;2023-10-31T10:42:01;12.80;99.90
17170;DHT22;8700;48.222;16.342;2023-10-31T10:45:24;12.70;99.90
17170;DHT22;8700;48.222;16.342;2023-10-31T10:48:47;12.60;99.90
17170;DHT22;8700;48.222;16.342;2023-10-31T10:52:22;12.80;99.90
17170;DHT22;8700;48.222;16.342;2023-10-31T10:55:46;12.70;99.90
17170;DHT22;8700;48.222;16.342;2023-10-31T10:59:15;12.70;99.90
17170;DHT22;8700;48.222;16.342;2023-10-31T11:02:39;12.60;99.90
17170;DHT22;8700;48.222;16.342;2023-10-31T11:06:04;12.40;99.90
17170;DHT22;8700;48.222;16.342;2023-10-31T11:09:26;12.20;99.90
17170;DHT22;8700;48.222;16.342;2023-10-31T11:12:47;12.10;99.90
17170;DHT22;8700;48.222;16.342;2023-10-31T11:16:13;12.00;99.90
17170;DHT22;8700;48.222;16.342;2023-10-31T11:19:36;12.10;99.90
17170;DHT22;8700;48.222;16.342;2023-10-31T11:22:59;12.00;99.90
17170;DHT22;8700;48.222;16.342;2023-10-31T11:26:26;11.90;99.90
17170;DHT22;8700;48.222;16.342;2023-10-31T11:29:47;11.90;99.90
17170;DHT22;8700;48.222;16.342;2023-10-31T11:33:12;11.90;99.90
17170;DHT22;8700;48.222;16.342;2023-10-31T11:36:35;11.90;99.90
17170;DHT22;8700;48.222;16.342;2023-10-31T11:40:18;12.00;99.90
17170;DHT22;8700;48.222;16.342;2023-10-31T11:43:53;11.90;99.90
17170;DHT22;8700;48.222;16.342;2023-10-31T11:47:15;12.00;99.90
17170;DHT22;8700;48.222;16.342;2023-10-31T11:50:37;12.20;99.90
17170;DHT22;8700;48.222;16.342;2023-10-31T11:54:00;12.40;99.90
17170;DHT22;8700;48.222;16.342;2023-10-31T11:57:29;12.40;99.90
17170;DHT22;8700;48.222;16.342;2023-10-31T12:00:52;12.30;99.90
17170;DHT22;8700;48.222;16.342;2023-10-31T12:04:21;12.30;99.90
17170;DHT22;8700;48.222;16.342;2023-10-31T12:07:43;12.30;99.90
17170;DHT22;8700;48.222;16.342;2023-10-31T12:11:06;12.30;99.90
17170;DHT22;8700;48.222;16.342;2023-10-31T12:14:29;12.10;99.90
17170;DHT22;8700;48.222;16.342;2023-10-31T12:17:50;12.20;99.90
17170;DHT22;8700;48.222;16.342;2023-10-31T12:21:11;12.50;99.90
17170;DHT22;8700;48.222;16.342;2023-10-31T12:24:34;12.70;99.90
17170;DHT22;8700;48.222;16.342;2023-10-31T12:27:55;12.80;99.90
17170;DHT22;8700;48.222;16.342;2023-10-31T12:31:18;12.70;99.90
17170;DHT22;8700;48.222;16.342;2023-10-31T12:34:43;12.70;99.90
17170;DHT22;8700;48.222;16.342;2023-10-31T12:38:05;12.40;99.90
17170;DHT22;8700;48.222;16.342;2023-10-31T12:41:27;12.50;99.90
17170;DHT22;8700;48.222;16.342;2023-10-31T12:44:48;12.60;99.90
17170;DHT22;8700;48.222;16.342;2023-10-31T12:48:10;12.70;99.90
17170;DHT22;8700;48.222;16.342;2023-10-31T12:51:32;12.70;99.90
17170;DHT22;8700;48.222;16.342;2023-10-31T12:54:53;12.70;99.90
17170;DHT22;8700;48.222;16.342;2023-10-31T12:58:20;12.80;99.90
17170;DHT22;8700;48.222;16.342;2023-10-31T13:01:42;12.50;99.90
17170;DHT22;8700;48.222;16.342;2023-10-31T13:05:13;12.50;99.90
17170;DHT22;8700;48.222;16.342;2023-10-31T13:08:35;12.70;99.90
17170;DHT22;8700;48.222;16.342;2023-10-31T13:12:01;12.80;99.90
17170;DHT22;8700;48.222;16.342;2023-10-31T13:15:23;13.10;99.90
17170;DHT22;8700;48.222;16.342;2023-10-31T13:18:44;13.10;99.90
17170;DHT22;8700;48.222;16.342;2023-10-31T13:22:07;12.80;99.90
17170;DHT22;8700;48.222;16.342;2023-10-31T13:25:28;12.90;99.90
17170;DHT22;8700;48.222;16.342;2023-10-31T13:28:51;12.90;99.90
17170;DHT22;8700;48.222;16.342;2023-10-31T13:32:12;12.80;99.90
17170;DHT22;8700;48.222;16.342;2023-10-31T13:35:33;12.60;99.90
17170;DHT22;8700;48.222;16.342;2023-10-31T13:38:55;12.20;99.90
17170;DHT22;8700;48.222;16.342;2023-10-31T13:42:17;11.90;99.90
17170;DHT22;8700;48.222;16.342;2023-10-31T13:45:38;12.00;99.90
17170;DHT22;8700;48.222;16.342;2023-10-31T13:48:59;12.30;99.90
17170;DHT22;8700;48.222;16.342;2023-10-31T13:52:20;12.40;99.90
17170;DHT22;8700;48.222;16.342;2023-10-31T13:55:43;12.40;99.90
17170;DHT22;8700;48.222;16.342;2023-10-31T13:59:04;12.40;99.90
17170;DHT22;8700;48.222;16.342;2023-10-31T14:02:26;12.50;99.90
17170;DHT22;8700;48.222;16.342;2023-10-31T14:05:48;12.60;99.90
17170;DHT22;8700;48.222;16.342;2023-10-31T14:09:10;12.60;99.90
17170;DHT22;8700;48.222;16.342;2023-10-31T14:12:33;12.60;99.90
17170;DHT22;8700;48.222;16.342;2023-10-31T14:15:54;12.70;99.90
17170;DHT22;8700;48.222;16.342;2023-10-31T14:19:15;12.80;99.90
17170;DHT22;8700;48.222;16.342;2023-10-31T14:22:37;12.70;99.90
17170;DHT22;8700;48.222;16.342;2023-10-31T14:25:58;12.70;99.90
17170;DHT22;8700;48.222;16.342;2023-10-31T14:29:23;12.70;99.90
17170;DHT22;8700;48.222;16.342;2023-10-31T14:32:44;12.90;99.90
17170;DHT22;8700;48.222;16.342;2023-10-31T14:36:06;12.80;99.90
17170;DHT22;8700;48.222;16.342;2023-10-31T14:39:28;12.50;99.90
17170;DHT22;8700;48.222;16.342;2023-10-31T14:42:49;12.50;99.90
17170;DHT22;8700;48.222;16.342;2023-10-31T14:46:12;12.30;99.90
17170;DHT22;8700;48.222;16.342;2023-10-31T14:49:33;12.60;99.90
17170;DHT22;8700;48.222;16.342;2023-10-31T14:52:54;12.70;99.90
17170;DHT22;8700;48.222;16.342;2023-10-31T14:56:15;12.60;99.90
17170;DHT22;8700;48.222;16.342;2023-10-31T14:59:37;12.30;99.90
17170;DHT22;8700;48.222;16.342;2023-10-31T15:02:59;12.50;99.90
17170;DHT22;8700;48.222;16.342;2023-10-31T15:06:20;12.30;99.90
17170;DHT22;8700;48.222;16.342;2023-10-31T15:09:41;12.30;99.90
17170;DHT22;8700;48.222;16.342;2023-10-31T15:13:03;12.20;99.90
17170;DHT22;8700;48.222;16.342;2023-10-31T15:16:24;12.10;99.90
17170;DHT22;8700;48.222;16.342;2023-10-31T15:19:46;12.10;99.90
17170;DHT22;8700;48.222;16.342;2023-10-31T15:23:07;12.10;99.90
17170;DHT22;8700;48.222;16.342;2023-10-31T15:26:28;12.10;99.90
17170;DHT22;8700;48.222;16.342;2023-10-31T15:29:49;12.20;99.90
17170;DHT22;8700;48.222;16.342;2023-10-31T15:33:11;12.40;99.90
17170;DHT22;8700;48.222;16.342;2023-10-31T15:36:33;12.30;99.90
17170;DHT22;8700;48.222;16.342;2023-10-31T15:39:54;12.10;99.90
17170;DHT22;8700;48.222;16.342;2023-10-31T15:43:15;12.20;99.90
17170;DHT22;8700;48.222;16.342;2023-10-31T15:46:36;12.00;99.90
17170;DHT22;8700;48.222;16.342;2023-10-31T15:49:58;12.20;99.90
17170;DHT22;8700;48.222;16.342;2023-10-31T15:53:20;12.20;99.90
17170;DHT22;8700;48.222;16.342;2023-10-31T15:56:43;12.10;99.90
17170;DHT22;8700;48.222;16.342;2023-10-31T16:00:07;12.20;99.90
17170;DHT22;8700;48.222;16.342;2023-10-31T16:03:32;12.20;99.90
17170;DHT22;8700;48.222;16.342;2023-10-31T16:06:53;12.10;99.90
17170;DHT22;8700;48.222;16.342;2023-10-31T16:10:16;12.20;99.90
17170;DHT22;8700;48.222;16.342;2023-10-31T16:13:37;12.40;99.90
17170;DHT22;8700;48.222;16.342;2023-10-31T16:17:00;12.20;99.90
17170;DHT22;8700;48.222;16.342;2023-10-31T16:20:20;12.20;99.90
17170;DHT22;8700;48.222;16.342;2023-10-31T16:23:42;12.30;99.90
17170;DHT22;8700;48.222;16.342;2023-10-31T16:27:05;12.30;99.90
17170;DHT22;8700;48.222;16.342;2023-10-31T16:30:26;12.40;99.90
17170;DHT22;8700;48.222;16.342;2023-10-31T16:33:47;12.30;99.90
17170;DHT22;8700;48.222;16.342;2023-10-31T16:37:08;12.30;99.90
17170;DHT22;8700;48.222;16.342;2023-10-31T16:40:30;12.40;99.90
17170;DHT22;8700;48.222;16.342;2023-10-31T16:43:52;12.50;99.90
17170;DHT22;8700;48.222;16.342;2023-10-31T16:47:13;12.30;99.90
17170;DHT22;8700;48.222;16.342;2023-10-31T16:50:35;12.40;99.90
17170;DHT22;8700;48.222;16.342;2023-10-31T16:53:57;12.40;99.90
17170;DHT22;8700;48.222;16.342;2023-10-31T16:57:18;12.40;99.90
17170;DHT22;8700;48.222;16.342;2023-10-31T17:00:40;12.60;99.90
17170;DHT22;8700;48.222;16.342;2023-10-31T17:04:02;12.80;99.90
17170;DHT22;8700;48.222;16.342;2023-10-31T17:07:23;12.90;99.90
17170;DHT22;8700;48.222;16.342;2023-10-31T17:10:45;12.90;99.90
17170;DHT22;8700;48.222;16.342;2023-10-31T17:14:06;12.80;99.90
17170;DHT22;8700;48.222;16.342;2023-10-31T17:17:28;12.90;99.90
17170;DHT22;8700;48.222;16.342;2023-10-31T17:20:49;12.80;99.90
17170;DHT22;8700;48.222;16.342;2023-10-31T17:24:11;12.90;99.90
17170;DHT22;8700;48.222;16.342;2023-10-31T17:27:32;12.90;99.90
17170;DHT22;8700;48.222;16.342;2023-10-31T17:30:53;12.90;99.90
17170;DHT22;8700;48.222;16.342;2023-10-31T17:34:16;12.80;99.90
17170;DHT22;8700;48.222;16.342;2023-10-31T17:37:38;12.60;99.90
17170;DHT22;8700;48.222;16.342;2023-10-31T17:40:59;12.50;99.90
17170;DHT22;8700;48.222;16.342;2023-10-31T17:44:20;12.70;99.90
17170;DHT22;8700;48.222;16.342;2023-10-31T17:47:41;12.80;99.90
17170;DHT22;8700;48.222;16.342;2023-10-31T17:51:04;12.80;99.90
17170;DHT22;8700;48.222;16.342;2023-10-31T17:54:26;12.90;99.90
17170;DHT22;8700;48.222;16.342;2023-10-31T17:57:47;13.10;99.90
17170;DHT22;8700;48.222;16.342;2023-10-31T18:01:08;13.10;99.90
17170;DHT22;8700;48.222;16.342;2023-10-31T18:04:29;13.00;99.90
17170;DHT22;8700;48.222;16.342;2023-10-31T18:07:52;13.00;99.90
17170;DHT22;8700;48.222;16.342;2023-10-31T18:11:13;13.00;99.90
17170;DHT22;8700;48.222;16.342;2023-10-31T18:14:34;13.00;99.90
17170;DHT22;8700;48.222;16.342;2023-10-31T18:17:56;13.10;99.90
17170;DHT22;8700;48.222;16.342;2023-10-31T18:21:17;13.10;99.90
17170;DHT22;8700;48.222;16.342;2023-10-31T18:24:40;13.10;99.90
17170;DHT22;8700;48.222;16.342;2023-10-31T18:28:02;13.20;99.90
17170;DHT22;8700;48.222;16.342;2023-10-31T18:31:23;13.20;99.90
17170;DHT22;8700;48.222;16.342;2023-10-31T18:34:45;13.00;99.90
17170;DHT22;8700;48.222;16.342;2023-10-31T18:38:06;12.80;99.90
17170;DHT22;8700;48.222;16.342;2023-10-31T18:41:30;13.00;99.90
17170;DHT22;8700;48.222;16.342;2023-10-31T18:44:53;12.80;99.90
17170;DHT22;8700;48.222;16.342;2023-10-31T18:48:14;12.90;99.90
17170;DHT22;8700;48.222;16.342;2023-10-31T18:51:35;12.90;99.90
17170;DHT22;8700;48.222;16.342;2023-10-31T18:54:56;13.10;99.90
17170;DHT22;8700;48.222;16.342;2023-10-31T18:58:20;13.20;99.90
17170;DHT22;8700;48.222;16.342;2023-10-31T19:01:41;13.30;99.90
17170;DHT22;8700;48.222;16.342;2023-10-31T19:05:04;13.40;99.90
17170;DHT22;8700;48.222;16.342;2023-10-31T19:08:26;13.40;99.90
17170;DHT22;8700;48.222;16.342;2023-10-31T19:11:48;13.40;99.90
17170;DHT22;8700;48.222;16.342;2023-10-31T19:15:11;13.30;99.90
17170;DHT22;8700;48.222;16.342;2023-10-31T19:18:32;13.30;99.90
17170;DHT22;8700;48.222;16.342;2023-10-31T19:21:53;13.30;99.90
17170;DHT22;8700;48.222;16.342;2023-10-31T19:25:14;13.20;99.90
17170;DHT22;8700;48.222;16.342;2023-10-31T19:28:35;13.10;99.90
17170;DHT22;8700;48.222;16.342;2023-10-31T19:31:59;13.10;99.90
17170;DHT22;8700;48.222;16.342;2023-10-31T19:35:21;13.00;99.90
17170;DHT22;8700;48.222;16.342;2023-10-31T19:38:43;13.10;99.90
17170;DHT22;8700;48.222;16.342;2023-10-31T19:42:04;13.30;99.90
17170;DHT22;8700;48.222;16.342;2023-10-31T19:45:25;13.50;99.90
17170;DHT22;8700;48.222;16.342;2023-10-31T19:48:48;13.60;99.90
17170;DHT22;8700;48.222;16.342;2023-10-31T19:52:11;13.70;99.90
17170;DHT22;8700;48.222;16.342;2023-10-31T19:55:32;13.70;99.90
17170;DHT22;8700;48.222;16.342;2023-10-31T19:58:53;13.60;99.90
17170;DHT22;8700;48.222;16.342;2023-10-31T20:02:16;13.70;99.90
17170;DHT22;8700;48.222;16.342;2023-10-31T20:05:38;13.80;99.90
17170;DHT22;8700;48.222;16.342;2023-10-31T20:09:00;13.70;99.90
17170;DHT22;8700;48.222;16.342;2023-10-31T20:12:21;13.70;99.90
17170;DHT22;8700;48.222;16.342;2023-10-31T20:15:42;13.80;99.90
17170;DHT22;8700;48.222;16.342;2023-10-31T20:19:03;13.80;99.90
17170;DHT22;8700;48.222;16.342;2023-10-31T20:22:26;13.80;99.90
17170;DHT22;8700;48.222;16.342;2023-10-31T20:25:48;13.90;99.90
17170;DHT22;8700;48.222;16.342;2023-10-31T20:29:10;13.90;99.90
17170;DHT22;8700;48.222;16.342;2023-10-31T20:32:31;13.80;99.90
17170;DHT22;8700;48.222;16.342;2023-10-31T20:35:56;13.90;99.90
17170;DHT22;8700;48.222;16.342;2023-10-31T20:39:18;13.90;99.90
17170;DHT22;8700;48.222;16.342;2023-10-31T20:42:39;13.90;99.90
17170;DHT22;8700;48.222;16.342;2023-10-31T20:46:01;13.80;99.90
17170;DHT22;8700;48.222;16.342;2023-10-31T20:49:22;13.50;99.90
17170;DHT22;8700;48.222;16.342;2023-10-31T20:52:43;13.40;99.90
17170;DHT22;8700;48.222;16.342;2023-10-31T20:56:06;13.10;99.90
17170;DHT22;8700;48.222;16.342;2023-10-31T20:59:28;13.10;99.90
17170;DHT22;8700;48.222;16.342;2023-10-31T21:02:49;13.20;99.90
17170;DHT22;8700;48.222;16.342;2023-10-31T21:06:11;13.30;99.90
17170;DHT22;8700;48.222;16.342;2023-10-31T21:09:32;13.20;99.90
17170;DHT22;8700;48.222;16.342;2023-10-31T21:12:55;13.00;99.90
17170;DHT22;8700;48.222;16.342;2023-10-31T21:16:17;12.90;99.90